Time;durP1;ratioP1;P1;durP2;ratioP2;P2;SDS_P1;SDS_P2;PMS_P1;PMS_P2;Temp;Humidity;BMP_temperature;BMP_pressure;BME280_temperature;BME280_humidity;BME280_pressure;Samples;Min_cycle;Max_cycle;Signal;HPM_P1;HPM_P2
2022/02/05 00:00:35;;;;;;;66.55;27.83;;;-3.80;64.10;;;;;;5160364;27;20489;-42
2022/02/05 00:05:39;;;;;;;61.55;28.10;;;-3.90;64.10;;;;;;5160806;27;20038;-42
2022/02/05 00:08:27;;;;;;;59.75;29.17;;;-3.90;64.10;;;;;;5160569;27;20047;-32
2022/02/05 00:43:08;;;;;;;71.43;31.65;;;-4.00;64.20;;;;;;5160275;27;20035;-33
2022/02/05 00:45:38;;;;;;;83.95;35.55;;;-4.00;64.20;;;;;;5159684;27;20034;-31
2022/02/05 00:48:05;;;;;;;77.00;33.75;;;-4.00;64.10;;;;;;5160102;27;20023;-32
2022/02/05 00:50:34;;;;;;;65.45;28.80;;;-4.00;64.10;;;;;;5159287;27;20066;-32
2022/02/05 00:53:05;;;;;;;65.57;28.83;;;-3.90;64.10;;;;;;5159962;27;20019;-31
2022/02/05 00:55:34;;;;;;;;;;;-3.90;63.90;;;;;;5159787;27;20099;-35
2022/02/05 00:58:05;;;;;;;68.53;30.77;;;-3.90;63.80;;;;;;5159884;27;19903;-32
2022/02/05 01:00:33;;;;;;;73.93;30.13;;;-3.90;63.70;;;;;;5159496;27;20326;-33
2022/02/05 01:02:59;;;;;;;78.93;32.42;;;-3.90;63.80;;;;;;5159894;27;20038;-33
2022/02/05 01:05:25;;;;;;;71.80;31.75;;;-4.00;63.70;;;;;;5158989;27;20069;-31
2022/02/05 01:07:51;;;;;;;79.55;34.17;;;-4.00;63.70;;;;;;5159490;27;20093;-42
2022/02/05 01:10:17;;;;;;;82.57;34.63;;;-4.00;63.50;;;;;;5159277;27;20027;-44
2022/02/05 01:12:50;;;;;;;74.95;33.30;;;-4.00;63.50;;;;;;5159457;27;20387;-31
2022/02/05 01:15:19;;;;;;;93.65;38.75;;;-4.10;63.40;;;;;;5158988;27;20113;-42
2022/02/05 01:17:51;;;;;;;84.60;33.72;;;-4.10;63.30;;;;;;5159540;27;20083;-42
2022/02/05 01:20:59;;;;;;;91.47;34.85;;;-4.10;63.50;;;;;;5159062;27;20026;-42
2022/02/05 01:23:25;;;;;;;82.35;33.47;;;-4.20;63.40;;;;;;5158780;27;20109;-31
2022/02/05 01:26:00;;;;;;;74.93;31.35;;;-4.20;63.40;;;;;;5158585;27;20034;-33
2022/02/05 01:28:31;;;;;;;78.50;32.22;;;-4.20;63.60;;;;;;5159344;27;20301;-42
2022/02/05 01:30:57;;;;;;;74.70;30.58;;;-4.30;63.50;;;;;;5158817;27;20097;-42
2022/02/05 01:33:44;;;;;;;82.15;31.40;;;-4.30;63.60;;;;;;5159202;27;20075;-31
2022/02/05 01:52:30;;;;;;;68.25;30.17;;;-4.50;64.20;;;;;;5158955;27;20030;-32
2022/02/05 02:05:35;;;;;;;67.38;28.50;;;-4.60;64.80;;;;;;5157424;27;20042;-42
2022/02/05 02:11:14;;;;;;;75.05;29.95;;;-4.60;65.30;;;;;;5157682;27;20420;-42
2022/02/05 02:16:34;;;;;;;67.70;29.20;;;-4.60;65.40;;;;;;5157912;27;20429;-32
2022/02/05 02:21:49;;;;;;;65.03;27.02;;;-4.60;65.60;;;;;;5158141;27;20033;-42
2022/02/05 02:24:22;;;;;;;75.72;31.00;;;-4.50;65.80;;;;;;5158270;27;20038;-42
2022/02/05 02:29:53;;;;;;;68.75;30.10;;;-4.50;65.80;;;;;;5157513;27;20108;-44
2022/02/05 02:32:20;;;;;;;74.93;29.63;;;-4.50;65.90;;;;;;5157973;27;20034;-42
2022/02/05 02:34:50;;;;;;;72.38;30.08;;;-4.50;65.90;;;;;;5157369;27;20035;-31
2022/02/05 02:37:21;;;;;;;69.25;27.80;;;-4.50;65.90;;;;;;5157929;27;20318;-42
2022/02/05 02:42:13;;;;;;;72.38;29.50;;;-4.50;65.90;;;;;;5157889;27;20027;-39
2022/02/05 02:44:39;;;;;;;68.13;28.33;;;-4.50;65.90;;;;;;5157130;27;20038;-32
2022/02/05 02:47:05;;;;;;;74.00;29.40;;;-4.50;65.90;;;;;;5157971;27;20111;-42
2022/02/05 02:50:17;;;;;;;71.15;28.83;;;-4.50;65.90;;;;;;5157049;27;20018;-41
2022/02/05 02:57:54;;;;;;;66.75;27.02;;;-4.40;65.80;;;;;;5157811;27;20030;-42
2022/02/05 03:00:21;;;;;;;73.05;30.30;;;-4.40;65.60;;;;;;5157209;27;20034;-42
2022/02/05 03:02:46;;;;;;;68.35;27.17;;;-4.40;65.60;;;;;;5157465;27;20034;-42
2022/02/05 03:05:12;;;;;;;66.95;28.05;;;-4.40;65.60;;;;;;5157511;27;20022;-31
2022/02/05 03:07:38;;;;;;;70.00;28.27;;;-4.50;65.50;;;;;;5157406;27;20026;-31
2022/02/05 03:10:04;;;;;;;66.97;28.48;;;-4.50;65.60;;;;;;5157047;27;20099;-42
2022/02/05 03:12:30;;;;;;;58.78;26.30;;;-4.50;65.60;;;;;;5157665;27;20033;-42
2022/02/05 03:14:56;;;;;;;69.65;30.05;;;-4.40;65.60;;;;;;5157582;27;20314;-35
2022/02/05 03:17:24;;;;;;;53.40;24.55;;;-4.40;65.50;;;;;;5159281;27;20027;-31
2022/02/05 03:19:52;;;;;;;60.75;25.83;;;-4.50;65.40;;;;;;5161225;27;20054;-42
2022/02/05 03:22:20;;;;;;;70.28;27.65;;;-4.50;65.50;;;;;;5161728;27;20041;-32
2022/02/05 03:24:47;;;;;;;62.22;27.50;;;-4.50;65.50;;;;;;5161467;27;20035;-32
2022/02/05 03:27:14;;;;;;;60.95;27.45;;;-4.50;65.50;;;;;;5161861;27;20106;-42
2022/02/05 03:29:44;;;;;;;81.40;31.92;;;-4.50;65.60;;;;;;5160520;27;20035;-38
2022/02/05 03:32:10;;;;;;;70.80;32.70;;;-4.50;65.60;;;;;;5161700;27;20391;-42
2022/02/05 03:34:36;;;;;;;60.92;26.65;;;-4.50;65.60;;;;;;5161099;27;20031;-42
2022/02/05 03:37:02;;;;;;;62.05;27.52;;;-4.60;65.60;;;;;;5161511;27;20027;-32
2022/02/05 03:39:27;;;;;;;45.25;22.83;;;-4.60;65.50;;;;;;5160780;27;20038;-42
2022/02/05 03:41:53;;;;;;;55.80;21.85;;;-4.60;65.70;;;;;;5161043;27;20151;-31
2022/02/05 03:44:19;;;;;;;47.75;22.58;;;-4.60;66.00;;;;;;5160883;27;20083;-31
2022/02/05 03:46:45;;;;;;;58.63;26.58;;;-4.60;66.20;;;;;;5160889;27;20018;-32
2022/02/05 03:49:14;;;;;;;56.05;24.15;;;-4.60;66.20;;;;;;5160829;27;20041;-31
2022/02/05 03:51:40;;;;;;;54.17;24.77;;;-4.50;66.20;;;;;;5160946;27;20029;-31
2022/02/05 03:54:05;;;;;;;56.35;23.85;;;-4.60;66.00;;;;;;5160998;27;20023;-33
2022/02/05 03:56:31;;;;;;;51.40;22.65;;;-4.60;66.10;;;;;;5160574;27;20044;-42
2022/02/05 03:58:57;;;;;;;52.17;22.17;;;-4.50;66.30;;;;;;5161271;27;20118;-33
2022/02/05 04:01:22;;;;;;;42.22;19.48;;;-4.50;66.40;;;;;;5160284;27;20023;-43
2022/02/05 04:03:48;;;;;;;52.88;22.13;;;-4.50;66.50;;;;;;5160865;27;20041;-33
2022/02/05 04:06:14;;;;;;;42.65;20.88;;;-4.50;66.50;;;;;;5142258;27;20027;-42
2022/02/05 04:08:40;;;;;;;57.25;23.42;;;-4.50;66.50;;;;;;5160661;27;20053;-43
2022/02/05 04:11:12;;;;;;;46.47;21.50;;;-4.40;66.60;;;;;;5160193;27;20023;-32
2022/02/05 04:16:22;;;;;;;50.97;23.55;;;-4.40;66.30;;;;;;5160223;27;20071;-43
2022/02/05 04:18:50;;;;;;;50.63;22.55;;;-4.40;66.30;;;;;;5160384;27;20039;-34
2022/02/05 04:21:16;;;;;;;48.13;22.45;;;-4.40;66.40;;;;;;5159969;27;20030;-32
2022/02/05 04:23:42;;;;;;;62.80;30.13;;;-4.40;66.50;;;;;;5160758;27;20034;-42
2022/02/05 04:26:08;;;;;;;54.72;27.73;;;-4.30;66.60;;;;;;5159999;27;20023;-42
2022/02/05 04:28:35;;;;;;;54.15;25.58;;;-4.30;66.60;;;;;;5159399;27;20034;-33
2022/02/05 04:31:01;;;;;;;65.55;29.17;;;-4.30;66.60;;;;;;5159689;27;20033;-32
2022/02/05 04:33:27;;;;;;;59.28;26.10;;;-4.30;66.40;;;;;;5160456;27;20110;-42
2022/02/05 04:35:52;;;;;;;74.13;32.00;;;-4.20;66.50;;;;;;5160174;27;20429;-42
2022/02/05 04:38:19;;;;;;;60.15;26.88;;;-4.20;66.40;;;;;;5160527;27;20026;-42
2022/02/05 04:40:52;;;;;;;68.97;29.08;;;-4.20;66.30;;;;;;5159888;27;20114;-32
2022/02/05 04:56:38;;;;;;;67.07;28.33;;;-4.00;66.00;;;;;;5159578;27;20026;-43
2022/02/05 05:04:32;;;;;;;79.15;32.20;;;-3.90;65.90;;;;;;5159840;27;20041;-32
2022/02/05 05:20:14;;;;;;;77.85;30.00;;;-3.60;66.30;;;;;;5158956;27;20083;-32
2022/02/05 05:22:39;;;;;;;67.50;28.83;;;-3.60;66.20;;;;;;5159304;27;20374;-42
2022/02/05 05:25:06;;;;;;;69.07;28.05;;;-3.50;66.20;;;;;;5158845;27;20437;-32
2022/02/05 05:27:32;;;;;;;66.93;27.60;;;-3.40;66.20;;;;;;5159185;27;20083;-42
2022/02/05 05:29:58;;;;;;;60.10;26.63;;;-3.40;65.80;;;;;;5158751;27;20478;-33
2022/02/05 05:32:24;;;;;;;50.13;23.45;;;-3.30;65.70;;;;;;5159210;27;20110;-32
2022/02/05 05:34:50;;;;;;;55.67;23.65;;;-3.30;65.70;;;;;;5158496;27;20152;-32
2022/02/05 05:37:20;;;;;;;61.15;24.00;;;-3.30;65.80;;;;;;5159389;27;20023;-43
2022/02/05 05:39:47;;;;;;;48.63;21.90;;;-3.20;65.80;;;;;;5158261;27;20031;-32
2022/02/05 05:42:19;;;;;;;49.75;21.45;;;-3.20;65.80;;;;;;5158287;27;20035;-32
2022/02/05 05:45:03;;;;;;;50.67;24.40;;;-3.10;65.80;;;;;;5158549;27;20038;-42
2022/02/05 05:50:05;;;;;;;47.55;24.42;;;-3.10;65.60;;;;;;5158479;27;20076;-42
2022/02/05 05:52:31;;;;;;;50.00;23.92;;;-3.00;65.60;;;;;;5141755;27;20023;-32
2022/02/05 05:54:58;;;;;;;46.35;22.67;;;-3.00;65.60;;;;;;5158111;27;20029;-36
2022/02/05 05:57:24;;;;;;;48.38;23.52;;;-3.00;65.80;;;;;;5150098;27;20090;-35
2022/02/05 05:59:49;;;;;;;45.35;20.55;;;-2.90;65.90;;;;;;5158045;27;20111;-42
2022/02/05 06:02:15;;;;;;;50.97;23.05;;;-2.90;65.90;;;;;;5148459;27;20402;-42
2022/02/05 06:04:41;;;;;;;43.05;19.98;;;-2.80;66.00;;;;;;5155890;27;20026;-42
2022/02/05 06:07:07;;;;;;;46.90;20.40;;;-2.70;66.00;;;;;;5158339;27;20023;-42
2022/02/05 06:09:40;;;;;;;37.30;18.60;;;-2.70;65.90;;;;;;5157504;27;20049;-32
2022/02/05 06:12:07;;;;;;;35.40;17.00;;;-2.70;65.80;;;;;;5158279;27;20050;-31
2022/02/05 06:14:33;;;;;;;38.22;17.00;;;-2.60;65.70;;;;;;5157584;27;20364;-42
2022/02/05 06:17:09;;;;;;;34.55;17.10;;;-2.70;65.40;;;;;;5158214;27;20022;-33
2022/02/05 06:19:38;;;;;;;35.50;18.13;;;-2.60;65.50;;;;;;5157493;27;20041;-42
2022/02/05 06:22:04;;;;;;;55.78;24.33;;;-2.70;65.30;;;;;;5157388;27;20035;-32
2022/02/05 06:24:30;;;;;;;38.40;18.83;;;-2.60;65.50;;;;;;5157680;27;20037;-32
2022/02/05 06:26:55;;;;;;;35.95;17.75;;;-2.70;65.50;;;;;;5157831;27;20057;-44
2022/02/05 06:29:21;;;;;;;36.40;17.65;;;-2.60;65.80;;;;;;5157545;27;20038;-36
2022/02/05 06:31:47;;;;;;;41.25;17.98;;;-2.60;65.80;;;;;;5157796;27;20030;-45
2022/02/05 06:34:12;;;;;;;42.40;18.30;;;-2.60;65.80;;;;;;5157473;27;20500;-45
2022/02/05 06:36:38;;;;;;;36.92;18.38;;;-2.50;65.80;;;;;;5157699;27;20509;-44
2022/02/05 06:39:04;;;;;;;38.00;17.05;;;-2.60;65.70;;;;;;5157555;27;20415;-42
2022/02/05 06:41:30;;;;;;;30.90;15.38;;;-2.60;65.90;;;;;;5157267;27;20333;-42
2022/02/05 06:43:55;;;;;;;38.53;16.05;;;-2.50;65.80;;;;;;5157633;27;20115;-42
2022/02/05 06:46:21;;;;;;;42.88;19.42;;;-2.50;65.90;;;;;;5157477;27;20082;-38
2022/02/05 06:48:46;;;;;;;35.20;16.70;;;-2.50;65.80;;;;;;5157871;27;20100;-43
2022/02/05 06:51:12;;;;;;;39.70;17.50;;;-2.50;65.80;;;;;;5156497;27;20038;-42
2022/02/05 06:53:39;;;;;;;39.17;18.60;;;-2.50;65.80;;;;;;5157332;27;20025;-43
2022/02/05 06:56:05;;;;;;;41.10;18.50;;;-2.50;65.90;;;;;;5157106;27;20034;-43
2022/02/05 06:58:30;;;;;;;41.58;18.30;;;-2.50;66.00;;;;;;5157774;27;20031;-43
2022/02/05 07:00:56;;;;;;;37.58;17.63;;;-2.50;66.30;;;;;;5157199;27;20102;-35
2022/02/05 07:03:22;;;;;;;36.45;16.30;;;-2.40;66.40;;;;;;5157514;27;20133;-36
2022/02/05 07:05:47;;;;;;;34.60;17.02;;;-2.40;66.30;;;;;;5156697;27;20035;-43
2022/02/05 07:08:14;;;;;;;34.95;16.75;;;-2.30;66.20;;;;;;5156956;27;20050;-35
2022/02/05 07:10:40;;;;;;;37.67;16.27;;;-2.20;66.10;;;;;;5156887;27;20037;-42
2022/02/05 07:13:15;;;;;;;38.60;17.88;;;-2.20;66.10;;;;;;5150599;27;20032;-32
2022/02/05 07:15:53;;;;;;;37.42;17.15;;;-2.10;66.10;;;;;;5156873;27;20041;-43
2022/02/05 07:18:32;;;;;;;38.78;17.60;;;-2.00;65.80;;;;;;5155001;27;20084;-43
2022/02/05 07:31:19;;;;;;;29.65;13.75;;;-1.70;65.60;;;;;;5135459;28;20336;-38
2022/02/05 07:33:46;;;;;;;41.47;16.58;;;-1.70;65.30;;;;;;5136408;28;20028;-42
2022/02/05 07:36:13;;;;;;;36.38;14.98;;;-1.60;65.30;;;;;;5135746;28;20323;-43
2022/02/05 07:38:39;;;;;;;37.55;15.40;;;-1.60;65.20;;;;;;5136599;28;20031;-43
2022/02/05 07:41:05;;;;;;;43.10;15.73;;;-1.50;65.00;;;;;;5135527;28;20043;-32
2022/02/05 07:43:34;;;;;;;33.15;15.90;;;-1.50;64.80;;;;;;5136201;28;20403;-43
2022/02/05 07:46:09;;;;;;;35.13;15.50;;;-1.50;64.60;;;;;;5135825;28;20164;-37
2022/02/05 07:48:35;;;;;;;35.92;16.73;;;-1.50;64.90;;;;;;5136323;28;20062;-42
2022/02/05 07:51:01;;;;;;;31.55;15.90;;;-1.50;65.00;;;;;;5135524;28;20425;-33
2022/02/05 07:53:28;;;;;;;32.05;15.07;;;-1.50;64.80;;;;;;5136526;28;20031;-43
2022/02/05 07:55:53;;;;;;;40.75;15.80;;;-1.50;64.80;;;;;;5135669;28;20038;-43
2022/02/05 07:58:19;;;;;;;32.67;16.20;;;-1.50;65.00;;;;;;5136340;28;20035;-43
2022/02/05 08:00:45;;;;;;;32.38;16.00;;;-1.50;65.10;;;;;;5135823;28;20047;-33
2022/02/05 08:03:11;;;;;;;33.88;15.95;;;-1.50;65.10;;;;;;5136140;27;20035;-43
2022/02/05 08:05:36;;;;;;;32.22;15.73;;;-1.50;65.40;;;;;;5138772;27;20031;-32
2022/02/05 08:08:05;;;;;;;37.33;16.60;;;-1.50;65.50;;;;;;5139821;27;20431;-43
2022/02/05 08:10:36;;;;;;;35.75;17.35;;;-1.50;65.50;;;;;;5139325;27;20027;-33
2022/02/05 08:13:02;;;;;;;31.60;16.15;;;-1.50;65.70;;;;;;5139804;27;20422;-43
2022/02/05 08:15:30;;;;;;;35.10;17.08;;;-1.40;65.90;;;;;;5139064;27;20038;-34
2022/02/05 08:17:56;;;;;;;38.05;17.40;;;-1.40;65.90;;;;;;5139778;27;20035;-33
2022/02/05 08:20:23;;;;;;;32.40;15.48;;;-1.30;65.90;;;;;;5138702;27;20427;-34
2022/02/05 08:22:50;;;;;;;36.05;16.23;;;-1.20;65.70;;;;;;5139672;27;20406;-43
2022/02/05 08:25:17;;;;;;;33.20;15.48;;;-1.10;65.70;;;;;;5139164;27;20030;-33
2022/02/05 08:27:43;;;;;;;33.50;15.15;;;-1.10;65.60;;;;;;5139427;27;20019;-43
2022/02/05 08:30:11;;;;;;;38.22;18.30;;;-1.00;65.40;;;;;;5138840;27;20034;-36
2022/02/05 08:32:38;;;;;;;42.95;16.20;;;-1.00;65.30;;;;;;5139510;27;20035;-35
2022/02/05 08:35:06;;;;;;;34.72;17.23;;;-0.90;65.20;;;;;;5138503;27;20033;-43
2022/02/05 08:37:37;;;;;;;36.10;16.20;;;-0.90;65.30;;;;;;5139279;27;20038;-43
2022/02/05 08:40:04;;;;;;;32.55;15.93;;;-0.80;65.50;;;;;;5138702;27;20039;-34
2022/02/05 08:42:29;;;;;;;32.42;15.40;;;-0.70;65.60;;;;;;5139169;27;20038;-44
2022/02/05 08:44:55;;;;;;;34.83;16.10;;;-0.70;65.30;;;;;;5118098;28;20044;-34
2022/02/05 08:47:21;;;;;;;35.67;16.00;;;-0.60;65.20;;;;;;5118199;28;20122;-33
2022/02/05 08:49:46;;;;;;;32.30;17.20;;;-0.60;65.20;;;;;;5117858;28;20036;-44
2022/02/05 08:52:13;;;;;;;41.92;16.48;;;-0.50;65.00;;;;;;5118646;28;20031;-35
2022/02/05 08:54:39;;;;;;;32.90;15.88;;;-0.50;65.10;;;;;;5117756;28;20062;-34
2022/02/05 08:57:09;;;;;;;30.63;14.65;;;-0.40;64.80;;;;;;5118342;28;20088;-33
2022/02/05 08:59:48;;;;;;;33.72;16.98;;;-0.40;64.20;;;;;;5117568;28;20074;-34
2022/02/05 09:02:21;;;;;;;34.55;16.20;;;-0.40;64.30;;;;;;5126130;27;20035;-43
2022/02/05 09:07:13;;;;;;;31.35;14.27;;;-0.30;64.30;;;;;;5151652;27;20087;-34
2022/02/05 09:12:32;;;;;;;28.48;14.45;;;-0.30;64.20;;;;;;5159438;27;20033;-43
2022/02/05 09:14:58;;;;;;;28.38;13.90;;;-0.20;64.10;;;;;;5158707;27;20071;-33
2022/02/05 09:17:25;;;;;;;26.73;12.45;;;-0.20;64.30;;;;;;5159454;27;20027;-44
2022/02/05 09:19:51;;;;;;;25.30;12.27;;;-0.20;63.90;;;;;;5158710;27;20035;-34
2022/02/05 09:22:17;;;;;;;23.50;11.25;;;-0.20;63.30;;;;;;5159197;27;20071;-33
2022/02/05 09:24:43;;;;;;;28.10;11.07;;;-0.20;63.10;;;;;;5158563;27;20050;-44
2022/02/05 09:27:12;;;;;;;23.83;10.98;;;-0.20;63.10;;;;;;5159017;27;20023;-44
2022/02/05 09:32:26;;;;;;;22.60;9.88;;;-0.10;62.90;;;;;;5158839;27;20110;-44
2022/02/05 09:34:52;;;;;;;19.75;10.45;;;-0.10;62.20;;;;;;5158240;27;20039;-44
2022/02/05 09:37:17;;;;;;;24.90;11.75;;;-0.10;62.00;;;;;;5158783;27;20023;-34
2022/02/05 09:39:43;;;;;;;27.70;11.25;;;-0.10;62.10;;;;;;5139869;27;20065;-34
2022/02/05 09:42:14;;;;;;;22.88;11.20;;;-0.10;62.20;;;;;;5158978;27;20079;-45
2022/02/05 09:44:39;;;;;;;22.27;11.93;;;-0.10;62.30;;;;;;5123415;27;20036;-44
2022/02/05 09:47:06;;;;;;;28.05;11.63;;;-0.10;62.20;;;;;;5117319;28;20131;-44
2022/02/05 09:49:32;;;;;;;22.50;11.98;;;-0.10;62.50;;;;;;5098638;28;20035;-33
2022/02/05 09:52:10;;;;;;;28.35;13.32;;;-0.10;62.60;;;;;;5117274;28;20305;-34
2022/02/05 09:54:37;;;;;;;21.80;11.68;;;0.00;62.60;;;;;;5116975;28;20081;-44
2022/02/05 09:57:03;;;;;;;21.73;11.30;;;0.00;62.60;;;;;;5117160;28;20039;-38
2022/02/05 09:59:56;;;;;;;25.73;10.88;;;0.10;62.70;;;;;;5116572;28;20096;-36
2022/02/05 10:02:34;;;;;;;21.75;10.77;;;0.10;62.70;;;;;;5117286;28;20130;-34
2022/02/05 10:05:08;;;;;;;25.10;12.02;;;0.20;62.70;;;;;;5116599;28;20028;-34
2022/02/05 10:07:50;;;;;;;39.15;13.90;;;0.20;62.60;;;;;;5116828;28;20035;-44
2022/02/05 10:10:16;;;;;;;30.67;13.93;;;0.20;63.00;;;;;;5116325;28;20316;-45
2022/02/05 10:12:42;;;;;;;30.92;14.60;;;0.30;62.90;;;;;;5116807;28;20023;-44
2022/02/05 10:15:08;;;;;;;26.27;12.38;;;0.40;62.70;;;;;;5116528;28;20028;-44
2022/02/05 10:17:43;;;;;;;26.65;12.88;;;0.40;62.70;;;;;;5116492;28;20033;-44
2022/02/05 10:20:11;;;;;;;29.20;13.15;;;0.40;62.30;;;;;;5116470;28;20354;-44
2022/02/05 10:22:43;;;;;;;27.65;12.85;;;0.50;62.60;;;;;;5116897;28;20325;-44
2022/02/05 10:25:24;;;;;;;27.88;12.75;;;0.50;62.50;;;;;;5116098;28;20118;-42
2022/02/05 10:27:50;;;;;;;;;;;0.60;62.70;;;;;;5116318;28;20046;-48
2022/02/05 10:30:26;;;;;;;27.10;12.02;;;0.70;62.50;;;;;;5116086;28;19934;-48
2022/02/05 10:32:58;;;;;;;23.58;11.85;;;0.70;62.60;;;;;;5116414;28;20031;-40
2022/02/05 10:38:00;;;;;;;25.60;11.93;;;0.80;62.40;;;;;;5116695;28;20297;-44
2022/02/05 10:40:43;;;;;;;21.60;10.02;;;0.70;62.10;;;;;;5116223;28;20031;-44
2022/02/05 10:43:13;;;;;;;23.70;10.85;;;0.80;62.20;;;;;;5116521;28;20289;-43
2022/02/05 10:45:51;;;;;;;18.73;9.63;;;0.80;62.20;;;;;;5135326;27;20031;-48
2022/02/05 10:48:23;;;;;;;19.23;10.52;;;0.70;62.00;;;;;;5137055;27;20023;-43
2022/02/05 10:50:52;;;;;;;19.83;10.05;;;0.70;62.30;;;;;;5136240;27;20095;-42
2022/02/05 10:53:23;;;;;;;23.67;11.10;;;0.70;62.30;;;;;;5136900;27;20023;-40
2022/02/05 11:07:13;;;;;;;18.75;10.60;;;0.80;63.40;;;;;;5136886;27;20331;-34
2022/02/05 11:09:41;;;;;;;21.13;10.20;;;0.90;63.90;;;;;;5135544;28;20201;-34
2022/02/05 11:19:58;;;;;;;18.60;9.35;;;1.10;65.30;;;;;;5136094;28;20095;-40
2022/02/05 11:22:24;;;;;;;17.55;10.07;;;1.10;65.40;;;;;;5136410;28;20106;-41
2022/02/05 11:24:53;;;;;;;21.23;10.25;;;1.10;65.70;;;;;;5136137;28;20079;-33
2022/02/05 11:27:19;;;;;;;24.05;10.55;;;1.20;66.20;;;;;;5136503;28;20035;-34
2022/02/05 11:29:44;;;;;;;21.02;10.98;;;1.20;66.60;;;;;;5135679;28;20035;-40
2022/02/05 11:32:25;;;;;;;17.85;9.38;;;1.20;66.90;;;;;;5136030;28;20034;-34
2022/02/05 11:35:04;;;;;;;18.00;9.20;;;1.30;67.20;;;;;;5136138;28;20343;-41
2022/02/05 11:37:30;;;;;;;18.23;10.00;;;1.30;67.50;;;;;;5136359;27;20035;-41
2022/02/05 11:39:56;;;;;;;21.60;10.70;;;1.30;67.30;;;;;;5139714;27;20033;-34
2022/02/05 11:42:35;;;;;;;19.98;10.30;;;1.20;67.80;;;;;;5140730;27;20042;-40
2022/02/05 11:45:26;;;;;;;19.90;10.05;;;1.20;67.80;;;;;;5139606;27;20088;-34
2022/02/05 11:47:56;;;;;;;19.20;9.60;;;1.20;68.40;;;;;;5140281;27;20023;-33
2022/02/05 11:50:26;;;;;;;20.55;10.25;;;1.20;68.60;;;;;;5139731;27;20032;-34
2022/02/05 11:52:55;;;;;;;17.35;9.15;;;1.20;68.90;;;;;;5140366;27;20023;-33
2022/02/05 11:55:27;;;;;;;23.77;11.35;;;1.20;69.00;;;;;;5139929;27;20027;-34
2022/02/05 11:58:04;;;;;;;20.17;10.20;;;1.10;69.00;;;;;;5140477;27;20311;-34
2022/02/05 12:00:43;;;;;;;22.08;10.30;;;1.10;69.60;;;;;;5139738;27;20034;-34
2022/02/05 12:03:18;;;;;;;18.80;10.27;;;1.00;69.90;;;;;;5139657;27;20145;-41
2022/02/05 12:05:49;;;;;;;21.30;10.68;;;0.90;70.40;;;;;;5139597;27;20031;-34
2022/02/05 12:08:15;;;;;;;21.38;10.80;;;0.90;70.90;;;;;;5139566;27;20130;-41
2022/02/05 12:10:47;;;;;;;23.33;10.60;;;0.80;71.20;;;;;;5139204;27;20172;-34
2022/02/05 12:13:22;;;;;;;21.25;10.95;;;0.80;71.70;;;;;;5139833;27;20030;-40
2022/02/05 12:15:55;;;;;;;23.88;11.60;;;0.80;72.00;;;;;;5139317;27;20061;-41
2022/02/05 12:18:25;;;;;;;25.88;13.35;;;0.80;72.40;;;;;;5139970;27;20422;-41
2022/02/05 12:25:57;;;;;;;26.02;12.38;;;0.90;72.60;;;;;;5139198;27;20419;-34
2022/02/05 12:28:36;;;;;;;24.77;12.23;;;0.90;72.60;;;;;;5139550;27;20082;-41
2022/02/05 12:31:05;;;;;;;29.58;12.85;;;0.80;72.80;;;;;;5120850;27;20327;-41
2022/02/05 12:33:43;;;;;;;24.35;12.23;;;0.80;73.10;;;;;;5139474;27;20060;-41
2022/02/05 12:36:09;;;;;;;25.67;12.45;;;0.80;73.20;;;;;;5138684;27;20102;-34
2022/02/05 12:38:43;;;;;;;20.30;11.27;;;0.80;73.60;;;;;;5139544;27;20122;-34
2022/02/05 12:41:11;;;;;;;27.58;13.88;;;0.80;73.60;;;;;;5138048;27;20071;-35
2022/02/05 12:43:57;;;;;;;28.13;14.95;;;0.80;73.80;;;;;;5139252;27;20110;-34
2022/02/05 12:46:28;;;;;;;24.20;12.32;;;0.80;73.80;;;;;;5138639;27;20122;-34
2022/02/05 12:49:00;;;;;;;22.67;11.27;;;0.80;74.10;;;;;;5139624;27;20055;-40
2022/02/05 12:51:27;;;;;;;21.90;10.95;;;0.90;74.10;;;;;;5142952;27;20088;-40
2022/02/05 12:54:04;;;;;;;22.92;11.30;;;0.80;74.00;;;;;;5139239;27;20051;-40
2022/02/05 12:56:35;;;;;;;24.95;12.18;;;0.80;74.00;;;;;;5138438;27;20027;-34
2022/02/05 12:59:04;;;;;;;23.23;11.63;;;0.80;74.10;;;;;;5139192;27;20028;-34
2022/02/05 13:01:31;;;;;;;23.08;12.30;;;0.80;74.80;;;;;;5138281;27;20411;-34
2022/02/05 13:04:14;;;;;;;23.00;10.93;;;0.80;74.30;;;;;;5138617;27;20069;-39
2022/02/05 13:06:40;;;;;;;31.50;14.20;;;0.80;74.50;;;;;;5138804;27;20446;-39
2022/02/05 13:09:20;;;;;;;25.65;12.93;;;0.80;74.70;;;;;;5138375;27;20055;-34
2022/02/05 13:11:46;;;;;;;30.75;13.95;;;0.70;74.80;;;;;;5138230;27;20403;-35
2022/02/05 13:14:11;;;;;;;25.02;11.73;;;0.70;74.80;;;;;;5138574;27;20050;-34
2022/02/05 13:16:40;;;;;;;21.52;10.88;;;0.70;74.90;;;;;;5138389;27;20020;-35
2022/02/05 13:25:02;;;;;;;24.33;12.75;;;0.70;74.90;;;;;;5138099;27;20326;-36
2022/02/05 13:36:08;;;;;;;22.55;11.10;;;0.60;75.30;;;;;;5137782;27;20156;-41
2022/02/05 13:38:57;;;;;;;24.25;11.52;;;0.60;75.40;;;;;;5138443;27;20035;-41
2022/02/05 13:41:33;;;;;;;23.67;12.23;;;0.50;75.60;;;;;;5137563;27;20080;-41
2022/02/05 13:43:59;;;;;;;30.67;14.05;;;0.50;75.90;;;;;;5138012;27;20027;-41
2022/02/05 13:46:26;;;;;;;23.48;12.02;;;0.60;76.00;;;;;;5137230;27;20433;-36
2022/02/05 13:48:52;;;;;;;28.05;13.27;;;0.60;75.90;;;;;;5119454;27;20027;-36
2022/02/05 13:51:18;;;;;;;23.60;12.18;;;0.60;75.80;;;;;;5137182;27;20068;-35
2022/02/05 13:53:52;;;;;;;25.27;12.48;;;0.70;75.80;;;;;;5138027;27;20038;-40
2022/02/05 13:56:19;;;;;;;28.77;13.57;;;0.60;75.90;;;;;;5137468;27;20084;-35
2022/02/05 13:58:46;;;;;;;21.05;10.32;;;0.60;75.80;;;;;;5143428;27;20054;-35
2022/02/05 14:01:31;;;;;;;20.05;10.68;;;0.60;75.80;;;;;;5156027;27;20035;-35
2022/02/05 14:04:10;;;;;;;19.75;10.00;;;0.60;75.80;;;;;;5158625;27;20035;-40
2022/02/05 14:06:49;;;;;;;27.05;11.50;;;0.60;75.90;;;;;;5157767;27;20436;-35
2022/02/05 14:09:32;;;;;;;23.13;11.50;;;0.50;75.90;;;;;;5157730;27;20058;-36
2022/02/05 14:12:13;;;;;;;23.45;11.40;;;0.50;76.20;;;;;;5158273;27;20067;-35
2022/02/05 14:14:38;;;;;;;22.60;11.55;;;0.40;76.30;;;;;;5157565;27;20019;-35
2022/02/05 14:17:17;;;;;;;21.75;10.55;;;0.40;76.60;;;;;;5157937;27;20375;-36
2022/02/05 14:19:44;;;;;;;25.30;12.48;;;0.40;76.80;;;;;;5157232;27;20095;-42
2022/02/05 14:22:23;;;;;;;22.70;12.20;;;0.40;76.90;;;;;;5157816;27;20034;-40
2022/02/05 14:25:03;;;;;;;26.50;13.07;;;0.40;76.90;;;;;;5157450;27;20031;-34
2022/02/05 14:27:31;;;;;;;26.90;11.88;;;0.40;76.90;;;;;;5157882;27;20066;-39
2022/02/05 14:30:00;;;;;;;25.98;11.82;;;0.40;76.90;;;;;;5157439;27;20083;-34
2022/02/05 14:35:28;;;;;;;21.23;10.35;;;0.50;76.90;;;;;;5157571;27;20033;-40
2022/02/05 14:40:44;;;;;;;23.42;11.05;;;0.50;76.90;;;;;;5157628;27;20531;-34
2022/02/05 14:43:11;;;;;;;20.00;10.60;;;0.50;76.90;;;;;;5157706;27;20033;-39
2022/02/05 14:45:37;;;;;;;23.20;11.73;;;0.50;76.90;;;;;;5156960;27;20023;-38
2022/02/05 14:48:03;;;;;;;22.40;9.93;;;0.50;76.90;;;;;;5157187;27;20035;-34
2022/02/05 14:50:29;;;;;;;18.90;10.73;;;0.50;76.90;;;;;;5155032;27;20030;-40
2022/02/05 14:52:55;;;;;;;23.65;11.32;;;0.50;77.00;;;;;;5155316;27;20038;-38
2022/02/05 14:55:20;;;;;;;19.70;10.93;;;0.50;77.10;;;;;;5155168;27;20019;-34
2022/02/05 14:57:47;;;;;;;21.83;11.25;;;0.50;77.10;;;;;;5155410;27;20048;-39
2022/02/05 15:00:13;;;;;;;21.95;10.75;;;0.50;77.20;;;;;;5155017;27;20039;-39
2022/02/05 15:02:39;;;;;;;21.02;10.73;;;0.60;77.20;;;;;;5155214;27;20030;-35
2022/02/05 15:05:11;;;;;;;23.45;10.82;;;0.60;77.00;;;;;;5155726;27;20031;-38
2022/02/05 15:07:40;;;;;;;22.65;12.18;;;0.70;77.00;;;;;;5155571;27;20103;-40
2022/02/05 15:10:08;;;;;;;24.05;12.00;;;0.70;76.80;;;;;;5154849;27;20034;-34
2022/02/05 15:12:33;;;;;;;23.48;12.10;;;0.70;76.70;;;;;;5156457;27;20026;-34
2022/02/05 15:14:59;;;;;;;21.67;11.57;;;0.70;76.60;;;;;;5162571;27;20079;-34
2022/02/05 15:17:26;;;;;;;25.38;13.65;;;0.70;76.60;;;;;;5164593;27;20059;-40
2022/02/05 15:19:51;;;;;;;26.63;13.63;;;0.80;76.60;;;;;;5163582;27;20031;-34
2022/02/05 15:22:17;;;;;;;22.83;12.00;;;0.80;76.70;;;;;;5164400;27;20034;-38
2022/02/05 15:24:43;;;;;;;23.85;11.45;;;0.80;76.70;;;;;;5163676;27;20045;-38
2022/02/05 15:27:11;;;;;;;26.00;12.32;;;0.70;76.90;;;;;;5164412;27;20446;-35
2022/02/05 15:29:36;;;;;;;29.20;18.13;;;0.70;77.00;;;;;;5163700;27;20039;-39
2022/02/05 15:32:02;;;;;;;28.55;13.43;;;0.70;77.10;;;;;;5163972;27;20427;-34
2022/02/05 15:34:28;;;;;;;27.73;14.30;;;0.70;77.30;;;;;;5163592;27;20079;-34
2022/02/05 15:37:04;;;;;;;30.40;15.75;;;0.70;77.50;;;;;;5164148;27;20023;-40
2022/02/05 15:40:05;;;;;;;28.60;14.15;;;0.80;77.70;;;;;;5163366;27;20448;-33
2022/02/05 15:45:02;;;;;;;28.80;13.50;;;0.70;77.90;;;;;;5164035;27;20076;-34
2022/02/05 15:47:28;;;;;;;24.98;13.77;;;0.70;78.00;;;;;;5164256;27;20079;-34